sensor_id;sensor_type;location;lat;lon;timestamp;temperature;humidity
38592;DHT22;24356;48.460;11.450;2023-07-29T00:00:41;17.00;86.70
38592;DHT22;24356;48.460;11.450;2023-07-29T00:03:08;17.00;87.10
38592;DHT22;24356;48.460;11.450;2023-07-29T00:05:35;17.00;86.70
38592;DHT22;24356;48.460;11.450;2023-07-29T00:08:03;17.00;86.70
38592;DHT22;24356;48.460;11.450;2023-07-29T00:10:31;17.00;86.50
38592;DHT22;24356;48.460;11.450;2023-07-29T00:12:56;16.90;86.60
38592;DHT22;24356;48.460;11.450;2023-07-29T00:15:22;16.90;86.60
38592;DHT22;24356;48.460;11.450;2023-07-29T00:17:48;16.90;86.50
38592;DHT22;24356;48.460;11.450;2023-07-29T00:20:13;16.90;86.50
38592;DHT22;24356;48.460;11.450;2023-07-29T00:22:39;16.90;86.60
38592;DHT22;24356;48.460;11.450;2023-07-29T00:25:05;16.80;86.60
38592;DHT22;24356;48.460;11.450;2023-07-29T00:27:32;16.80;86.60
38592;DHT22;24356;48.460;11.450;2023-07-29T00:29:57;16.80;86.50
38592;DHT22;24356;48.460;11.450;2023-07-29T00:32:23;16.70;86.70
38592;DHT22;24356;48.460;11.450;2023-07-29T00:34:48;16.70;86.50
38592;DHT22;24356;48.460;11.450;2023-07-29T00:37:15;16.70;86.70
38592;DHT22;24356;48.460;11.450;2023-07-29T00:39:41;16.70;86.60
38592;DHT22;24356;48.460;11.450;2023-07-29T00:42:07;16.60;86.50
38592;DHT22;24356;48.460;11.450;2023-07-29T00:44:32;16.60;86.70
38592;DHT22;24356;48.460;11.450;2023-07-29T00:46:59;16.60;86.60
38592;DHT22;24356;48.460;11.450;2023-07-29T00:49:26;16.60;86.70
38592;DHT22;24356;48.460;11.450;2023-07-29T00:51:51;16.60;86.70
38592;DHT22;24356;48.460;11.450;2023-07-29T00:54:17;16.60;87.00
38592;DHT22;24356;48.460;11.450;2023-07-29T00:56:43;16.50;86.80
38592;DHT22;24356;48.460;11.450;2023-07-29T00:59:09;16.50;86.80
38592;DHT22;24356;48.460;11.450;2023-07-29T01:01:35;16.50;86.70
38592;DHT22;24356;48.460;11.450;2023-07-29T01:04:01;16.50;86.60
38592;DHT22;24356;48.460;11.450;2023-07-29T01:06:46;16.50;86.60
38592;DHT22;24356;48.460;11.450;2023-07-29T01:09:33;16.40;86.60
38592;DHT22;24356;48.460;11.450;2023-07-29T01:12:33;16.40;86.60
38592;DHT22;24356;48.460;11.450;2023-07-29T01:15:17;16.40;86.50
38592;DHT22;24356;48.460;11.450;2023-07-29T01:18:04;16.30;86.60
38592;DHT22;24356;48.460;11.450;2023-07-29T01:20:33;16.30;86.70
38592;DHT22;24356;48.460;11.450;2023-07-29T01:22:59;16.30;86.60
38592;DHT22;24356;48.460;11.450;2023-07-29T01:25:24;16.20;86.60
38592;DHT22;24356;48.460;11.450;2023-07-29T01:27:50;16.20;86.60
38592;DHT22;24356;48.460;11.450;2023-07-29T01:30:17;16.20;86.60
38592;DHT22;24356;48.460;11.450;2023-07-29T01:35:51;16.20;86.70
38592;DHT22;24356;48.460;11.450;2023-07-29T01:38:29;16.10;86.70
38592;DHT22;24356;48.460;11.450;2023-07-29T01:40:58;16.10;86.80
38592;DHT22;24356;48.460;11.450;2023-07-29T01:43:28;16.10;86.80
38592;DHT22;24356;48.460;11.450;2023-07-29T01:45:54;16.00;86.90
38592;DHT22;24356;48.460;11.450;2023-07-29T01:48:20;16.00;86.80
38592;DHT22;24356;48.460;11.450;2023-07-29T01:50:45;16.00;86.90
38592;DHT22;24356;48.460;11.450;2023-07-29T01:53:11;16.00;86.90
38592;DHT22;24356;48.460;11.450;2023-07-29T01:55:36;15.90;86.90
38592;DHT22;24356;48.460;11.450;2023-07-29T01:58:02;15.90;86.90
38592;DHT22;24356;48.460;11.450;2023-07-29T02:00:27;15.80;86.80
38592;DHT22;24356;48.460;11.450;2023-07-29T02:02:53;15.80;86.90
38592;DHT22;24356;48.460;11.450;2023-07-29T02:05:19;15.80;87.00
38592;DHT22;24356;48.460;11.450;2023-07-29T02:07:45;15.80;86.90
38592;DHT22;24356;48.460;11.450;2023-07-29T02:10:11;15.70;86.90
38592;DHT22;24356;48.460;11.450;2023-07-29T02:12:37;15.70;87.00
38592;DHT22;24356;48.460;11.450;2023-07-29T02:15:03;15.70;86.90
38592;DHT22;24356;48.460;11.450;2023-07-29T02:17:30;15.70;86.90
38592;DHT22;24356;48.460;11.450;2023-07-29T02:19:56;15.60;87.10
38592;DHT22;24356;48.460;11.450;2023-07-29T02:22:22;15.60;87.10
38592;DHT22;24356;48.460;11.450;2023-07-29T02:24:47;15.60;87.00
38592;DHT22;24356;48.460;11.450;2023-07-29T02:27:13;15.60;86.90
38592;DHT22;24356;48.460;11.450;2023-07-29T02:29:38;15.60;87.00
38592;DHT22;24356;48.460;11.450;2023-07-29T02:32:04;15.60;87.10
38592;DHT22;24356;48.460;11.450;2023-07-29T02:34:30;15.60;87.00
38592;DHT22;24356;48.460;11.450;2023-07-29T02:36:56;15.50;87.00
38592;DHT22;24356;48.460;11.450;2023-07-29T02:39:21;15.50;87.00
38592;DHT22;24356;48.460;11.450;2023-07-29T02:41:48;15.50;87.00
38592;DHT22;24356;48.460;11.450;2023-07-29T02:44:14;15.50;87.00
38592;DHT22;24356;48.460;11.450;2023-07-29T02:46:40;15.50;87.00
38592;DHT22;24356;48.460;11.450;2023-07-29T02:49:05;15.50;87.00
38592;DHT22;24356;48.460;11.450;2023-07-29T02:51:33;15.40;87.00
38592;DHT22;24356;48.460;11.450;2023-07-29T02:53:58;15.40;87.10
38592;DHT22;24356;48.460;11.450;2023-07-29T02:56:24;15.40;87.00
38592;DHT22;24356;48.460;11.450;2023-07-29T02:58:49;15.40;87.00
38592;DHT22;24356;48.460;11.450;2023-07-29T03:01:17;15.40;87.00
38592;DHT22;24356;48.460;11.450;2023-07-29T03:03:43;15.40;87.00
38592;DHT22;24356;48.460;11.450;2023-07-29T03:06:13;15.40;87.00
38592;DHT22;24356;48.460;11.450;2023-07-29T03:08:38;15.40;86.90
38592;DHT22;24356;48.460;11.450;2023-07-29T03:11:06;15.30;86.90
38592;DHT22;24356;48.460;11.450;2023-07-29T03:13:32;15.30;87.40
38592;DHT22;24356;48.460;11.450;2023-07-29T03:16:08;15.30;86.90
38592;DHT22;24356;48.460;11.450;2023-07-29T03:18:34;15.30;86.90
38592;DHT22;24356;48.460;11.450;2023-07-29T03:21:00;15.30;86.90
38592;DHT22;24356;48.460;11.450;2023-07-29T03:23:28;15.30;87.00
38592;DHT22;24356;48.460;11.450;2023-07-29T03:25:55;15.30;86.90
38592;DHT22;24356;48.460;11.450;2023-07-29T03:28:27;15.30;86.90
38592;DHT22;24356;48.460;11.450;2023-07-29T03:30:56;15.30;87.00
38592;DHT22;24356;48.460;11.450;2023-07-29T03:33:22;15.30;87.00
38592;DHT22;24356;48.460;11.450;2023-07-29T03:35:48;15.30;86.80
38592;DHT22;24356;48.460;11.450;2023-07-29T03:38:14;15.20;87.00
38592;DHT22;24356;48.460;11.450;2023-07-29T03:40:40;15.20;87.00
38592;DHT22;24356;48.460;11.450;2023-07-29T03:43:07;15.20;86.90
38592;DHT22;24356;48.460;11.450;2023-07-29T03:45:33;15.20;86.90
38592;DHT22;24356;48.460;11.450;2023-07-29T03:47:59;15.20;86.90
38592;DHT22;24356;48.460;11.450;2023-07-29T03:50:24;15.20;86.90
38592;DHT22;24356;48.460;11.450;2023-07-29T03:52:50;15.20;86.90
38592;DHT22;24356;48.460;11.450;2023-07-29T03:55:16;15.20;87.00
38592;DHT22;24356;48.460;11.450;2023-07-29T03:57:42;15.20;86.90
38592;DHT22;24356;48.460;11.450;2023-07-29T04:00:08;15.20;86.80
38592;DHT22;24356;48.460;11.450;2023-07-29T04:02:34;15.20;86.90
38592;DHT22;24356;48.460;11.450;2023-07-29T04:05:03;15.20;86.90
38592;DHT22;24356;48.460;11.450;2023-07-29T04:07:30;15.20;86.80
38592;DHT22;24356;48.460;11.450;2023-07-29T04:09:56;15.20;87.40
38592;DHT22;24356;48.460;11.450;2023-07-29T04:12:22;15.20;87.00
38592;DHT22;24356;48.460;11.450;2023-07-29T04:14:49;15.20;86.80
38592;DHT22;24356;48.460;11.450;2023-07-29T04:17:17;15.30;86.80
38592;DHT22;24356;48.460;11.450;2023-07-29T04:19:42;15.30;86.90
38592;DHT22;24356;48.460;11.450;2023-07-29T04:22:08;15.30;86.90
38592;DHT22;24356;48.460;11.450;2023-07-29T04:24:33;15.30;86.90
38592;DHT22;24356;48.460;11.450;2023-07-29T04:26:59;15.30;86.80
38592;DHT22;24356;48.460;11.450;2023-07-29T04:29:25;15.30;87.00
38592;DHT22;24356;48.460;11.450;2023-07-29T04:31:51;15.30;87.00
38592;DHT22;24356;48.460;11.450;2023-07-29T04:34:17;15.30;86.80
38592;DHT22;24356;48.460;11.450;2023-07-29T04:36:43;15.30;86.90
38592;DHT22;24356;48.460;11.450;2023-07-29T04:39:09;15.20;86.90
38592;DHT22;24356;48.460;11.450;2023-07-29T04:41:34;15.20;86.90
38592;DHT22;24356;48.460;11.450;2023-07-29T04:44:01;15.20;86.90
38592;DHT22;24356;48.460;11.450;2023-07-29T04:46:27;15.20;86.80
38592;DHT22;24356;48.460;11.450;2023-07-29T04:48:54;15.20;86.90
38592;DHT22;24356;48.460;11.450;2023-07-29T04:51:20;15.20;86.90
38592;DHT22;24356;48.460;11.450;2023-07-29T04:53:46;15.20;86.90
38592;DHT22;24356;48.460;11.450;2023-07-29T04:56:11;15.20;86.70
38592;DHT22;24356;48.460;11.450;2023-07-29T04:58:37;15.20;87.80
38592;DHT22;24356;48.460;11.450;2023-07-29T05:01:03;15.20;86.80
38592;DHT22;24356;48.460;11.450;2023-07-29T05:08:40;15.20;87.60
38592;DHT22;24356;48.460;11.450;2023-07-29T05:11:05;15.20;88.20
38592;DHT22;24356;48.460;11.450;2023-07-29T05:13:33;15.20;89.00
38592;DHT22;24356;48.460;11.450;2023-07-29T05:16:47;15.30;88.90
38592;DHT22;24356;48.460;11.450;2023-07-29T05:20:00;15.30;88.10
38592;DHT22;24356;48.460;11.450;2023-07-29T05:32:59;15.60;87.60
38592;DHT22;24356;48.460;11.450;2023-07-29T05:35:25;15.60;88.10
38592;DHT22;24356;48.460;11.450;2023-07-29T05:38:01;15.60;87.40
38592;DHT22;24356;48.460;11.450;2023-07-29T05:40:28;15.70;87.40
38592;DHT22;24356;48.460;11.450;2023-07-29T05:42:54;15.80;87.20
38592;DHT22;24356;48.460;11.450;2023-07-29T05:45:22;15.80;87.60
38592;DHT22;24356;48.460;11.450;2023-07-29T05:47:57;15.90;87.80
38592;DHT22;24356;48.460;11.450;2023-07-29T05:50:26;15.90;88.10
38592;DHT22;24356;48.460;11.450;2023-07-29T05:52:58;16.00;87.70
38592;DHT22;24356;48.460;11.450;2023-07-29T05:55:24;16.00;87.50
38592;DHT22;24356;48.460;11.450;2023-07-29T05:57:50;16.10;87.60
38592;DHT22;24356;48.460;11.450;2023-07-29T06:00:15;16.10;87.70
38592;DHT22;24356;48.460;11.450;2023-07-29T06:02:41;16.20;87.50
38592;DHT22;24356;48.460;11.450;2023-07-29T06:05:07;16.20;87.60
38592;DHT22;24356;48.460;11.450;2023-07-29T06:07:32;16.20;87.40
38592;DHT22;24356;48.460;11.450;2023-07-29T06:09:59;16.30;87.10
38592;DHT22;24356;48.460;11.450;2023-07-29T06:12:25;16.30;87.40
38592;DHT22;24356;48.460;11.450;2023-07-29T06:14:51;16.30;87.50
38592;DHT22;24356;48.460;11.450;2023-07-29T06:17:16;16.40;87.70
38592;DHT22;24356;48.460;11.450;2023-07-29T06:19:42;16.50;88.10
38592;DHT22;24356;48.460;11.450;2023-07-29T06:22:07;16.50;88.50
38592;DHT22;24356;48.460;11.450;2023-07-29T06:24:33;16.60;88.50
38592;DHT22;24356;48.460;11.450;2023-07-29T06:26:58;16.70;88.80
38592;DHT22;24356;48.460;11.450;2023-07-29T06:29:24;16.70;88.80
38592;DHT22;24356;48.460;11.450;2023-07-29T06:31:49;16.80;88.90
38592;DHT22;24356;48.460;11.450;2023-07-29T06:34:17;16.90;89.00
38592;DHT22;24356;48.460;11.450;2023-07-29T06:36:43;17.00;88.90
38592;DHT22;24356;48.460;11.450;2023-07-29T06:39:09;17.10;89.10
38592;DHT22;24356;48.460;11.450;2023-07-29T06:41:35;17.10;89.00
38592;DHT22;24356;48.460;11.450;2023-07-29T06:44:00;17.20;89.10
38592;DHT22;24356;48.460;11.450;2023-07-29T06:46:26;17.30;88.70
38592;DHT22;24356;48.460;11.450;2023-07-29T06:48:52;17.40;88.80
38592;DHT22;24356;48.460;11.450;2023-07-29T06:51:17;17.40;88.90
38592;DHT22;24356;48.460;11.450;2023-07-29T06:53:43;17.40;88.70
38592;DHT22;24356;48.460;11.450;2023-07-29T06:56:08;17.50;88.70
38592;DHT22;24356;48.460;11.450;2023-07-29T06:58:34;17.50;88.60
38592;DHT22;24356;48.460;11.450;2023-07-29T07:01:00;17.50;88.40
38592;DHT22;24356;48.460;11.450;2023-07-29T07:03:26;17.50;88.40
38592;DHT22;24356;48.460;11.450;2023-07-29T07:05:51;17.60;88.20
38592;DHT22;24356;48.460;11.450;2023-07-29T07:08:17;17.60;88.40
38592;DHT22;24356;48.460;11.450;2023-07-29T07:10:43;17.60;88.40
38592;DHT22;24356;48.460;11.450;2023-07-29T07:13:08;17.60;88.50
38592;DHT22;24356;48.460;11.450;2023-07-29T07:15:34;17.60;88.50
38592;DHT22;24356;48.460;11.450;2023-07-29T07:18:09;17.60;88.40
38592;DHT22;24356;48.460;11.450;2023-07-29T07:20:40;17.60;88.20
38592;DHT22;24356;48.460;11.450;2023-07-29T07:23:08;17.60;88.70
38592;DHT22;24356;48.460;11.450;2023-07-29T07:25:39;17.60;88.50
38592;DHT22;24356;48.460;11.450;2023-07-29T07:28:13;17.60;88.50
38592;DHT22;24356;48.460;11.450;2023-07-29T07:30:41;17.60;88.20
38592;DHT22;24356;48.460;11.450;2023-07-29T07:33:12;17.50;88.20
38592;DHT22;24356;48.460;11.450;2023-07-29T07:35:45;17.50;88.60
38592;DHT22;24356;48.460;11.450;2023-07-29T07:38:12;17.50;88.80
38592;DHT22;24356;48.460;11.450;2023-07-29T07:44:39;17.60;88.90
38592;DHT22;24356;48.460;11.450;2023-07-29T07:51:13;17.70;88.80
38592;DHT22;24356;48.460;11.450;2023-07-29T07:57:25;18.00;89.00
38592;DHT22;24356;48.460;11.450;2023-07-29T07:59:52;18.10;89.40
38592;DHT22;24356;48.460;11.450;2023-07-29T08:02:18;18.20;89.10
38592;DHT22;24356;48.460;11.450;2023-07-29T08:04:44;18.30;89.70
38592;DHT22;24356;48.460;11.450;2023-07-29T08:07:09;18.40;89.70
38592;DHT22;24356;48.460;11.450;2023-07-29T08:09:35;18.50;88.90
38592;DHT22;24356;48.460;11.450;2023-07-29T08:12:01;18.50;88.90
38592;DHT22;24356;48.460;11.450;2023-07-29T08:14:27;18.60;88.90
38592;DHT22;24356;48.460;11.450;2023-07-29T08:16:53;18.70;88.80
38592;DHT22;24356;48.460;11.450;2023-07-29T08:19:18;18.80;88.70
38592;DHT22;24356;48.460;11.450;2023-07-29T08:21:44;18.90;88.90
38592;DHT22;24356;48.460;11.450;2023-07-29T08:24:09;18.90;88.40
38592;DHT22;24356;48.460;11.450;2023-07-29T08:26:35;19.00;88.10
38592;DHT22;24356;48.460;11.450;2023-07-29T08:29:00;19.10;87.90
38592;DHT22;24356;48.460;11.450;2023-07-29T08:31:29;19.10;87.80
38592;DHT22;24356;48.460;11.450;2023-07-29T08:33:59;19.20;87.70
38592;DHT22;24356;48.460;11.450;2023-07-29T08:36:24;19.30;87.50
38592;DHT22;24356;48.460;11.450;2023-07-29T08:38:50;19.30;87.50
38592;DHT22;24356;48.460;11.450;2023-07-29T08:44:23;19.40;87.40
38592;DHT22;24356;48.460;11.450;2023-07-29T08:46:51;19.50;87.60
38592;DHT22;24356;48.460;11.450;2023-07-29T08:49:18;19.50;87.70
38592;DHT22;24356;48.460;11.450;2023-07-29T08:51:49;19.70;88.10
38592;DHT22;24356;48.460;11.450;2023-07-29T08:54:15;19.70;88.10
38592;DHT22;24356;48.460;11.450;2023-07-29T08:56:42;19.80;87.90
38592;DHT22;24356;48.460;11.450;2023-07-29T08:59:11;19.90;87.80
38592;DHT22;24356;48.460;11.450;2023-07-29T09:01:41;20.00;88.00
38592;DHT22;24356;48.460;11.450;2023-07-29T09:04:08;20.10;87.70
38592;DHT22;24356;48.460;11.450;2023-07-29T09:06:35;20.10;87.70
38592;DHT22;24356;48.460;11.450;2023-07-29T09:09:02;20.30;87.80
38592;DHT22;24356;48.460;11.450;2023-07-29T09:11:28;20.40;88.30
38592;DHT22;24356;48.460;11.450;2023-07-29T09:13:57;20.50;88.50
38592;DHT22;24356;48.460;11.450;2023-07-29T09:16:23;20.70;88.40
38592;DHT22;24356;48.460;11.450;2023-07-29T09:18:50;20.80;88.50
38592;DHT22;24356;48.460;11.450;2023-07-29T09:21:24;21.00;88.30
38592;DHT22;24356;48.460;11.450;2023-07-29T09:23:54;21.20;88.10
38592;DHT22;24356;48.460;11.450;2023-07-29T09:26:24;21.30;87.90
38592;DHT22;24356;48.460;11.450;2023-07-29T09:28:53;21.50;87.60
38592;DHT22;24356;48.460;11.450;2023-07-29T09:31:21;21.60;87.50
38592;DHT22;24356;48.460;11.450;2023-07-29T09:33:46;21.70;87.00
38592;DHT22;24356;48.460;11.450;2023-07-29T09:36:12;21.80;87.40
38592;DHT22;24356;48.460;11.450;2023-07-29T09:38:38;21.90;87.70
38592;DHT22;24356;48.460;11.450;2023-07-29T09:41:04;22.10;87.50
38592;DHT22;24356;48.460;11.450;2023-07-29T09:43:31;22.20;87.40
38592;DHT22;24356;48.460;11.450;2023-07-29T09:46:04;22.40;87.40
38592;DHT22;24356;48.460;11.450;2023-07-29T09:48:37;22.60;87.50
38592;DHT22;24356;48.460;11.450;2023-07-29T09:51:14;22.70;86.80
38592;DHT22;24356;48.460;11.450;2023-07-29T09:53:45;22.90;86.70
38592;DHT22;24356;48.460;11.450;2023-07-29T09:56:11;23.00;87.10
38592;DHT22;24356;48.460;11.450;2023-07-29T09:58:38;23.10;87.00
38592;DHT22;24356;48.460;11.450;2023-07-29T10:01:07;23.20;87.10
38592;DHT22;24356;48.460;11.450;2023-07-29T10:03:34;23.30;87.30
38592;DHT22;24356;48.460;11.450;2023-07-29T10:06:05;23.40;87.30
38592;DHT22;24356;48.460;11.450;2023-07-29T10:08:31;23.50;87.10
38592;DHT22;24356;48.460;11.450;2023-07-29T10:11:07;23.50;86.50
38592;DHT22;24356;48.460;11.450;2023-07-29T10:13:34;23.50;85.70
38592;DHT22;24356;48.460;11.450;2023-07-29T10:16:00;23.40;85.50
38592;DHT22;24356;48.460;11.450;2023-07-29T10:18:30;23.40;85.40
38592;DHT22;24356;48.460;11.450;2023-07-29T10:20:57;23.30;84.50
38592;DHT22;24356;48.460;11.450;2023-07-29T10:23:25;23.20;83.80
38592;DHT22;24356;48.460;11.450;2023-07-29T10:26:06;23.10;82.50
38592;DHT22;24356;48.460;11.450;2023-07-29T10:28:33;22.90;81.60
38592;DHT22;24356;48.460;11.450;2023-07-29T10:31:03;22.60;82.00
38592;DHT22;24356;48.460;11.450;2023-07-29T10:33:31;22.30;81.90
38592;DHT22;24356;48.460;11.450;2023-07-29T10:35:58;22.10;82.50
38592;DHT22;24356;48.460;11.450;2023-07-29T10:38:25;21.90;82.90
38592;DHT22;24356;48.460;11.450;2023-07-29T10:40:51;21.70;83.00
38592;DHT22;24356;48.460;11.450;2023-07-29T10:43:32;21.50;82.90
38592;DHT22;24356;48.460;11.450;2023-07-29T10:46:17;21.40;83.20
38592;DHT22;24356;48.460;11.450;2023-07-29T10:48:55;21.20;83.20
38592;DHT22;24356;48.460;11.450;2023-07-29T10:51:29;21.10;83.30
38592;DHT22;24356;48.460;11.450;2023-07-29T10:54:14;21.00;83.40
38592;DHT22;24356;48.460;11.450;2023-07-29T10:56:48;20.90;83.70
38592;DHT22;24356;48.460;11.450;2023-07-29T11:01:58;20.70;83.80
38592;DHT22;24356;48.460;11.450;2023-07-29T11:12:38;20.50;84.20
38592;DHT22;24356;48.460;11.450;2023-07-29T11:15:15;20.50;85.60
38592;DHT22;24356;48.460;11.450;2023-07-29T11:17:58;20.60;86.00
38592;DHT22;24356;48.460;11.450;2023-07-29T11:20:29;20.60;86.20
38592;DHT22;24356;48.460;11.450;2023-07-29T11:22:56;20.70;86.30
38592;DHT22;24356;48.460;11.450;2023-07-29T11:25:23;20.80;86.30
38592;DHT22;24356;48.460;11.450;2023-07-29T11:27:53;20.80;86.10
38592;DHT22;24356;48.460;11.450;2023-07-29T11:30:19;20.90;85.90
38592;DHT22;24356;48.460;11.450;2023-07-29T11:32:46;21.00;85.50
38592;DHT22;24356;48.460;11.450;2023-07-29T11:35:17;21.10;85.40
38592;DHT22;24356;48.460;11.450;2023-07-29T11:37:48;21.10;85.60
38592;DHT22;24356;48.460;11.450;2023-07-29T11:40:19;21.20;85.80
38592;DHT22;24356;48.460;11.450;2023-07-29T11:42:46;21.30;86.00
38592;DHT22;24356;48.460;11.450;2023-07-29T11:45:13;21.40;86.50
38592;DHT22;24356;48.460;11.450;2023-07-29T11:47:39;21.50;86.80
38592;DHT22;24356;48.460;11.450;2023-07-29T11:50:11;21.60;87.10
38592;DHT22;24356;48.460;11.450;2023-07-29T11:52:42;21.80;87.60
38592;DHT22;24356;48.460;11.450;2023-07-29T11:55:09;22.00;87.60
38592;DHT22;24356;48.460;11.450;2023-07-29T11:57:37;22.20;87.40
38592;DHT22;24356;48.460;11.450;2023-07-29T12:00:08;22.40;87.20
38592;DHT22;24356;48.460;11.450;2023-07-29T12:02:40;22.60;86.90
38592;DHT22;24356;48.460;11.450;2023-07-29T12:05:08;22.70;86.60
38592;DHT22;24356;48.460;11.450;2023-07-29T12:07:35;22.90;85.50
38592;DHT22;24356;48.460;11.450;2023-07-29T12:10:02;22.90;84.90
38592;DHT22;24356;48.460;11.450;2023-07-29T12:12:29;23.00;84.40
38592;DHT22;24356;48.460;11.450;2023-07-29T12:14:54;23.10;84.50
38592;DHT22;24356;48.460;11.450;2023-07-29T12:17:20;23.10;84.80
38592;DHT22;24356;48.460;11.450;2023-07-29T12:19:46;23.20;84.80
38592;DHT22;24356;48.460;11.450;2023-07-29T12:22:11;23.30;84.60
38592;DHT22;24356;48.460;11.450;2023-07-29T12:24:40;23.30;84.40
38592;DHT22;24356;48.460;11.450;2023-07-29T12:27:10;23.30;84.10
38592;DHT22;24356;48.460;11.450;2023-07-29T12:29:40;23.30;84.00
38592;DHT22;24356;48.460;11.450;2023-07-29T12:32:07;23.30;84.10
38592;DHT22;24356;48.460;11.450;2023-07-29T12:34:35;23.30;83.90
38592;DHT22;24356;48.460;11.450;2023-07-29T12:37:03;23.40;84.00
38592;DHT22;24356;48.460;11.450;2023-07-29T12:39:32;23.30;84.00
38592;DHT22;24356;48.460;11.450;2023-07-29T12:41:58;23.30;84.00
38592;DHT22;24356;48.460;11.450;2023-07-29T12:44:26;23.30;83.90
38592;DHT22;24356;48.460;11.450;2023-07-29T12:46:52;23.40;84.30
38592;DHT22;24356;48.460;11.450;2023-07-29T12:49:18;23.50;84.70
38592;DHT22;24356;48.460;11.450;2023-07-29T12:51:44;23.60;84.40
38592;DHT22;24356;48.460;11.450;2023-07-29T12:54:09;23.80;84.30
38592;DHT22;24356;48.460;11.450;2023-07-29T12:56:35;24.00;84.20
38592;DHT22;24356;48.460;11.450;2023-07-29T12:59:02;24.20;84.40
38592;DHT22;24356;48.460;11.450;2023-07-29T13:01:28;24.40;84.40
38592;DHT22;24356;48.460;11.450;2023-07-29T13:03:54;24.60;83.30
38592;DHT22;24356;48.460;11.450;2023-07-29T13:06:19;24.90;82.80
38592;DHT22;24356;48.460;11.450;2023-07-29T13:08:46;25.10;82.50
38592;DHT22;24356;48.460;11.450;2023-07-29T13:11:12;25.30;82.40
38592;DHT22;24356;48.460;11.450;2023-07-29T13:13:37;25.50;81.90
38592;DHT22;24356;48.460;11.450;2023-07-29T13:16:03;25.70;81.90
38592;DHT22;24356;48.460;11.450;2023-07-29T13:18:29;25.90;81.80
38592;DHT22;24356;48.460;11.450;2023-07-29T13:20:55;26.10;81.40
38592;DHT22;24356;48.460;11.450;2023-07-29T13:23:21;26.20;81.30
38592;DHT22;24356;48.460;11.450;2023-07-29T13:25:47;26.30;81.00
38592;DHT22;24356;48.460;11.450;2023-07-29T13:28:13;26.30;80.70
38592;DHT22;24356;48.460;11.450;2023-07-29T13:30:39;26.30;80.30
38592;DHT22;24356;48.460;11.450;2023-07-29T13:33:07;26.30;79.90
38592;DHT22;24356;48.460;11.450;2023-07-29T13:35:33;26.20;79.50
38592;DHT22;24356;48.460;11.450;2023-07-29T13:37:59;25.90;77.50
38592;DHT22;24356;48.460;11.450;2023-07-29T13:40:25;25.80;78.00
38592;DHT22;24356;48.460;11.450;2023-07-29T13:42:50;25.70;78.20
38592;DHT22;24356;48.460;11.450;2023-07-29T13:45:17;25.50;77.90
38592;DHT22;24356;48.460;11.450;2023-07-29T13:47:44;25.40;78.30
38592;DHT22;24356;48.460;11.450;2023-07-29T13:50:11;25.30;78.30
38592;DHT22;24356;48.460;11.450;2023-07-29T13:52:37;25.10;78.20
38592;DHT22;24356;48.460;11.450;2023-07-29T13:55:04;25.00;78.20
38592;DHT22;24356;48.460;11.450;2023-07-29T13:57:30;24.80;78.70
38592;DHT22;24356;48.460;11.450;2023-07-29T13:59:55;24.60;78.60
38592;DHT22;24356;48.460;11.450;2023-07-29T14:02:21;24.30;79.10
38592;DHT22;24356;48.460;11.450;2023-07-29T14:04:47;24.10;79.40
38592;DHT22;24356;48.460;11.450;2023-07-29T14:07:12;23.90;79.70
38592;DHT22;24356;48.460;11.450;2023-07-29T14:09:38;23.70;80.00
38592;DHT22;24356;48.460;11.450;2023-07-29T14:12:04;23.50;80.20
38592;DHT22;24356;48.460;11.450;2023-07-29T14:14:31;23.40;80.50
38592;DHT22;24356;48.460;11.450;2023-07-29T14:16:56;23.20;80.90
38592;DHT22;24356;48.460;11.450;2023-07-29T14:19:23;23.10;80.90
38592;DHT22;24356;48.460;11.450;2023-07-29T14:21:49;23.00;81.10
38592;DHT22;24356;48.460;11.450;2023-07-29T14:24:14;23.00;81.30
38592;DHT22;24356;48.460;11.450;2023-07-29T14:26:41;22.90;81.50
38592;DHT22;24356;48.460;11.450;2023-07-29T14:29:06;22.90;81.50
38592;DHT22;24356;48.460;11.450;2023-07-29T14:31:32;22.90;81.70
38592;DHT22;24356;48.460;11.450;2023-07-29T14:33:59;22.90;81.90
38592;DHT22;24356;48.460;11.450;2023-07-29T14:36:25;22.90;81.90
38592;DHT22;24356;48.460;11.450;2023-07-29T14:38:51;22.90;81.90
38592;DHT22;24356;48.460;11.450;2023-07-29T14:41:17;22.90;82.00
38592;DHT22;24356;48.460;11.450;2023-07-29T14:43:42;22.90;82.00
38592;DHT22;24356;48.460;11.450;2023-07-29T14:46:08;22.90;82.20
38592;DHT22;24356;48.460;11.450;2023-07-29T14:48:33;22.90;82.50
38592;DHT22;24356;48.460;11.450;2023-07-29T14:50:59;23.10;82.90
38592;DHT22;24356;48.460;11.450;2023-07-29T14:53:25;23.20;83.20
38592;DHT22;24356;48.460;11.450;2023-07-29T14:55:50;23.30;83.20
38592;DHT22;24356;48.460;11.450;2023-07-29T14:58:16;23.40;83.20
38592;DHT22;24356;48.460;11.450;2023-07-29T15:00:42;23.50;83.10
38592;DHT22;24356;48.460;11.450;2023-07-29T15:03:08;23.60;83.10
38592;DHT22;24356;48.460;11.450;2023-07-29T15:05:33;23.70;83.20
38592;DHT22;24356;48.460;11.450;2023-07-29T15:07:59;23.70;83.10
38592;DHT22;24356;48.460;11.450;2023-07-29T15:10:24;23.70;83.10
38592;DHT22;24356;48.460;11.450;2023-07-29T15:12:51;23.70;83.10
38592;DHT22;24356;48.460;11.450;2023-07-29T15:15:16;23.70;83.00
38592;DHT22;24356;48.460;11.450;2023-07-29T15:17:42;23.70;82.80
38592;DHT22;24356;48.460;11.450;2023-07-29T15:20:08;23.70;82.50
38592;DHT22;24356;48.460;11.450;2023-07-29T15:22:34;23.70;82.10
38592;DHT22;24356;48.460;11.450;2023-07-29T15:25:00;23.60;81.80
38592;DHT22;24356;48.460;11.450;2023-07-29T15:27:27;23.50;81.70
38592;DHT22;24356;48.460;11.450;2023-07-29T15:29:53;23.50;81.60
38592;DHT22;24356;48.460;11.450;2023-07-29T15:32:20;23.30;81.40
38592;DHT22;24356;48.460;11.450;2023-07-29T15:34:46;23.30;81.60
38592;DHT22;24356;48.460;11.450;2023-07-29T15:37:11;23.10;81.70
38592;DHT22;24356;48.460;11.450;2023-07-29T15:39:37;23.00;81.50
38592;DHT22;24356;48.460;11.450;2023-07-29T15:42:03;22.90;81.20
38592;DHT22;24356;48.460;11.450;2023-07-29T15:44:29;22.80;80.90
38592;DHT22;24356;48.460;11.450;2023-07-29T15:46:54;22.60;81.20
38592;DHT22;24356;48.460;11.450;2023-07-29T15:49:22;22.50;81.30
38592;DHT22;24356;48.460;11.450;2023-07-29T15:51:47;22.30;81.10
38592;DHT22;24356;48.460;11.450;2023-07-29T15:54:13;22.20;81.40
38592;DHT22;24356;48.460;11.450;2023-07-29T15:56:41;22.00;81.70
38592;DHT22;24356;48.460;11.450;2023-07-29T15:59:07;21.90;81.90
38592;DHT22;24356;48.460;11.450;2023-07-29T16:01:33;21.80;81.90